sensor_id;sensor_type;location;lat;lon;timestamp;P1;durP1;ratioP1;P2;durP2;ratioP2
5819;SDS011;2936;47.348;9.640;2023-08-20T11:21:35;6.53;;;5.73;;
5819;SDS011;2936;47.348;9.640;2023-08-20T11:24:02;12.67;;;7.00;;
5819;SDS011;2936;47.348;9.640;2023-08-20T11:26:31;6.03;;;5.43;;
5819;SDS011;2936;47.348;9.640;2023-08-20T11:29:00;6.70;;;5.23;;
5819;SDS011;2936;47.348;9.640;2023-08-20T11:31:29;6.03;;;5.20;;
5819;SDS011;2936;47.348;9.640;2023-08-20T11:33:56;4.87;;;4.50;;
5819;SDS011;2936;47.348;9.640;2023-08-20T11:36:24;7.27;;;5.53;;
5819;SDS011;2936;47.348;9.640;2023-08-20T11:38:54;6.67;;;5.53;;
5819;SDS011;2936;47.348;9.640;2023-08-20T11:41:22;9.00;;;4.83;;
5819;SDS011;2936;47.348;9.640;2023-08-20T11:43:50;6.80;;;5.90;;
5819;SDS011;2936;47.348;9.640;2023-08-20T11:46:19;5.30;;;4.80;;
5819;SDS011;2936;47.348;9.640;2023-08-20T11:49:00;7.67;;;6.43;;
5819;SDS011;2936;47.348;9.640;2023-08-20T11:51:28;6.73;;;5.50;;
5819;SDS011;2936;47.348;9.640;2023-08-20T11:53:58;5.70;;;5.20;;
5819;SDS011;2936;47.348;9.640;2023-08-20T11:56:26;5.50;;;5.10;;
5819;SDS011;2936;47.348;9.640;2023-08-20T11:58:58;10.10;;;5.83;;
5819;SDS011;2936;47.348;9.640;2023-08-20T12:01:25;6.53;;;5.80;;
5819;SDS011;2936;47.348;9.640;2023-08-20T12:03:53;10.30;;;6.03;;
5819;SDS011;2936;47.348;9.640;2023-08-20T12:06:21;6.50;;;5.93;;
5819;SDS011;2936;47.348;9.640;2023-08-20T12:08:49;6.20;;;5.73;;
5819;SDS011;2936;47.348;9.640;2023-08-20T12:11:18;6.20;;;5.70;;
5819;SDS011;2936;47.348;9.640;2023-08-20T12:13:50;11.40;;;5.37;;
5819;SDS011;2936;47.348;9.640;2023-08-20T12:16:18;16.40;;;5.60;;
5819;SDS011;2936;47.348;9.640;2023-08-20T12:18:45;12.70;;;6.63;;
5819;SDS011;2936;47.348;9.640;2023-08-20T12:21:18;5.47;;;5.07;;
5819;SDS011;2936;47.348;9.640;2023-08-20T12:23:46;6.80;;;5.80;;
5819;SDS011;2936;47.348;9.640;2023-08-20T12:26:13;6.20;;;5.57;;
5819;SDS011;2936;47.348;9.640;2023-08-20T12:28:43;5.93;;;5.43;;
5819;SDS011;2936;47.348;9.640;2023-08-20T12:31:10;5.90;;;5.40;;
5819;SDS011;2936;47.348;9.640;2023-08-20T12:33:38;7.70;;;5.57;;
5819;SDS011;2936;47.348;9.640;2023-08-20T12:36:06;5.43;;;5.03;;
5819;SDS011;2936;47.348;9.640;2023-08-20T12:38:35;5.80;;;5.20;;
5819;SDS011;2936;47.348;9.640;2023-08-20T12:41:03;5.20;;;4.77;;
5819;SDS011;2936;47.348;9.640;2023-08-20T12:43:31;5.60;;;5.10;;
5819;SDS011;2936;47.348;9.640;2023-08-20T12:46:00;7.43;;;5.20;;
5819;SDS011;2936;47.348;9.640;2023-08-20T12:48:28;9.83;;;4.90;;
5819;SDS011;2936;47.348;9.640;2023-08-20T12:50:57;8.90;;;5.40;;
5819;SDS011;2936;47.348;9.640;2023-08-20T12:53:24;5.87;;;5.23;;
5819;SDS011;2936;47.348;9.640;2023-08-20T12:55:52;12.30;;;5.40;;
5819;SDS011;2936;47.348;9.640;2023-08-20T12:58:19;5.73;;;5.33;;
5819;SDS011;2936;47.348;9.640;2023-08-20T13:00:47;14.70;;;6.00;;
5819;SDS011;2936;47.348;9.640;2023-08-20T13:03:18;5.50;;;5.10;;
5819;SDS011;2936;47.348;9.640;2023-08-20T13:05:46;7.03;;;5.33;;
5819;SDS011;2936;47.348;9.640;2023-08-20T13:08:14;6.03;;;5.10;;
5819;SDS011;2936;47.348;9.640;2023-08-20T13:10:42;5.57;;;5.17;;
5819;SDS011;2936;47.348;9.640;2023-08-20T13:13:14;8.03;;;5.20;;
5819;SDS011;2936;47.348;9.640;2023-08-20T13:15:43;5.70;;;4.57;;
5819;SDS011;2936;47.348;9.640;2023-08-20T13:18:11;4.80;;;4.40;;
5819;SDS011;2936;47.348;9.640;2023-08-20T13:20:41;8.53;;;5.00;;
5819;SDS011;2936;47.348;9.640;2023-08-20T13:23:08;5.77;;;4.60;;
5819;SDS011;2936;47.348;9.640;2023-08-20T13:25:36;5.70;;;5.20;;
5819;SDS011;2936;47.348;9.640;2023-08-20T13:28:04;7.03;;;4.97;;
5819;SDS011;2936;47.348;9.640;2023-08-20T13:30:31;4.47;;;4.07;;
5819;SDS011;2936;47.348;9.640;2023-08-20T13:32:59;5.00;;;4.60;;
5819;SDS011;2936;47.348;9.640;2023-08-20T13:35:35;5.57;;;5.03;;
5819;SDS011;2936;47.348;9.640;2023-08-20T13:38:04;12.27;;;4.70;;
5819;SDS011;2936;47.348;9.640;2023-08-20T13:40:32;7.07;;;4.40;;
5819;SDS011;2936;47.348;9.640;2023-08-20T13:43:03;4.63;;;4.23;;
5819;SDS011;2936;47.348;9.640;2023-08-20T13:45:31;3.90;;;3.70;;
5819;SDS011;2936;47.348;9.640;2023-08-20T13:47:59;4.80;;;4.33;;
5819;SDS011;2936;47.348;9.640;2023-08-20T13:50:27;6.43;;;5.40;;
5819;SDS011;2936;47.348;9.640;2023-08-20T13:52:54;3.80;;;3.50;;
5819;SDS011;2936;47.348;9.640;2023-08-20T13:55:23;14.20;;;4.77;;
5819;SDS011;2936;47.348;9.640;2023-08-20T13:57:51;4.23;;;3.80;;
5819;SDS011;2936;47.348;9.640;2023-08-20T14:00:19;13.00;;;4.67;;
5819;SDS011;2936;47.348;9.640;2023-08-20T14:02:46;5.40;;;4.43;;
5819;SDS011;2936;47.348;9.640;2023-08-20T14:05:13;8.17;;;4.57;;
5819;SDS011;2936;47.348;9.640;2023-08-20T14:07:41;15.23;;;4.47;;
5819;SDS011;2936;47.348;9.640;2023-08-20T14:10:09;6.83;;;4.90;;
5819;SDS011;2936;47.348;9.640;2023-08-20T14:12:38;10.30;;;4.30;;
5819;SDS011;2936;47.348;9.640;2023-08-20T14:15:06;4.20;;;3.90;;
5819;SDS011;2936;47.348;9.640;2023-08-20T14:17:34;6.17;;;4.07;;
5819;SDS011;2936;47.348;9.640;2023-08-20T14:20:02;6.60;;;3.73;;
5819;SDS011;2936;47.348;9.640;2023-08-20T14:22:30;3.87;;;3.60;;
5819;SDS011;2936;47.348;9.640;2023-08-20T14:24:58;6.13;;;4.10;;
5819;SDS011;2936;47.348;9.640;2023-08-20T14:27:26;5.30;;;4.13;;
5819;SDS011;2936;47.348;9.640;2023-08-20T14:29:55;4.30;;;3.90;;
5819;SDS011;2936;47.348;9.640;2023-08-20T14:32:23;6.67;;;4.13;;
5819;SDS011;2936;47.348;9.640;2023-08-20T14:34:50;5.73;;;4.20;;
5819;SDS011;2936;47.348;9.640;2023-08-20T14:37:18;4.33;;;3.93;;
5819;SDS011;2936;47.348;9.640;2023-08-20T14:39:47;5.07;;;4.30;;
5819;SDS011;2936;47.348;9.640;2023-08-20T14:42:14;3.93;;;3.70;;
5819;SDS011;2936;47.348;9.640;2023-08-20T14:44:42;4.90;;;3.70;;
5819;SDS011;2936;47.348;9.640;2023-08-20T14:47:11;5.63;;;4.93;;
5819;SDS011;2936;47.348;9.640;2023-08-20T14:49:38;5.33;;;3.83;;
5819;SDS011;2936;47.348;9.640;2023-08-20T14:52:06;4.27;;;3.90;;
5819;SDS011;2936;47.348;9.640;2023-08-20T14:54:33;3.50;;;3.30;;
5819;SDS011;2936;47.348;9.640;2023-08-20T14:57:00;8.70;;;4.67;;
5819;SDS011;2936;47.348;9.640;2023-08-20T14:59:28;15.03;;;4.60;;
5819;SDS011;2936;47.348;9.640;2023-08-20T15:01:56;5.60;;;5.20;;
5819;SDS011;2936;47.348;9.640;2023-08-20T15:04:24;4.60;;;3.93;;
5819;SDS011;2936;47.348;9.640;2023-08-20T15:06:52;4.77;;;4.40;;
5819;SDS011;2936;47.348;9.640;2023-08-20T15:09:20;5.23;;;4.60;;
5819;SDS011;2936;47.348;9.640;2023-08-20T15:11:47;4.53;;;4.13;;
5819;SDS011;2936;47.348;9.640;2023-08-20T15:14:15;6.30;;;4.30;;
5819;SDS011;2936;47.348;9.640;2023-08-20T15:16:43;15.33;;;3.63;;
5819;SDS011;2936;47.348;9.640;2023-08-20T15:19:11;4.43;;;4.13;;
5819;SDS011;2936;47.348;9.640;2023-08-20T15:21:40;4.90;;;4.43;;
5819;SDS011;2936;47.348;9.640;2023-08-20T15:24:08;5.23;;;4.73;;
5819;SDS011;2936;47.348;9.640;2023-08-20T15:26:35;4.13;;;3.60;;
5819;SDS011;2936;47.348;9.640;2023-08-20T15:29:03;7.27;;;4.50;;
5819;SDS011;2936;47.348;9.640;2023-08-20T15:31:31;5.30;;;4.90;;
5819;SDS011;2936;47.348;9.640;2023-08-20T15:33:59;4.83;;;4.53;;
5819;SDS011;2936;47.348;9.640;2023-08-20T15:36:27;4.70;;;3.93;;
5819;SDS011;2936;47.348;9.640;2023-08-20T15:38:56;5.77;;;4.30;;
5819;SDS011;2936;47.348;9.640;2023-08-20T15:41:24;6.90;;;4.63;;
5819;SDS011;2936;47.348;9.640;2023-08-20T15:43:51;5.17;;;4.60;;
5819;SDS011;2936;47.348;9.640;2023-08-20T15:46:19;5.03;;;4.43;;
5819;SDS011;2936;47.348;9.640;2023-08-20T15:48:48;3.90;;;3.60;;
5819;SDS011;2936;47.348;9.640;2023-08-20T15:51:16;7.13;;;4.43;;
5819;SDS011;2936;47.348;9.640;2023-08-20T15:53:44;5.40;;;4.87;;
5819;SDS011;2936;47.348;9.640;2023-08-20T15:56:13;4.33;;;4.03;;
5819;SDS011;2936;47.348;9.640;2023-08-20T15:58:41;4.60;;;4.20;;
5819;SDS011;2936;47.348;9.640;2023-08-20T16:01:08;4.90;;;4.40;;
5819;SDS011;2936;47.348;9.640;2023-08-20T16:03:36;8.10;;;4.53;;
5819;SDS011;2936;47.348;9.640;2023-08-20T16:06:04;4.90;;;4.40;;
5819;SDS011;2936;47.348;9.640;2023-08-20T16:08:32;4.60;;;4.27;;
5819;SDS011;2936;47.348;9.640;2023-08-20T16:10:59;4.63;;;4.20;;
5819;SDS011;2936;47.348;9.640;2023-08-20T16:13:29;3.83;;;3.50;;
5819;SDS011;2936;47.348;9.640;2023-08-20T16:15:57;13.63;;;5.13;;
5819;SDS011;2936;47.348;9.640;2023-08-20T16:18:24;5.63;;;4.17;;
5819;SDS011;2936;47.348;9.640;2023-08-20T16:20:52;4.67;;;4.37;;
5819;SDS011;2936;47.348;9.640;2023-08-20T16:23:19;4.63;;;4.30;;
5819;SDS011;2936;47.348;9.640;2023-08-20T16:25:47;5.40;;;4.60;;
5819;SDS011;2936;47.348;9.640;2023-08-20T16:28:14;5.57;;;4.80;;
5819;SDS011;2936;47.348;9.640;2023-08-20T16:30:43;4.93;;;4.50;;
5819;SDS011;2936;47.348;9.640;2023-08-20T16:33:11;5.60;;;5.03;;
5819;SDS011;2936;47.348;9.640;2023-08-20T16:35:39;6.83;;;4.97;;
5819;SDS011;2936;47.348;9.640;2023-08-20T16:38:07;4.63;;;4.23;;
5819;SDS011;2936;47.348;9.640;2023-08-20T16:40:35;5.60;;;4.43;;
5819;SDS011;2936;47.348;9.640;2023-08-20T16:43:02;7.87;;;4.87;;
5819;SDS011;2936;47.348;9.640;2023-08-20T16:45:31;6.47;;;5.10;;
5819;SDS011;2936;47.348;9.640;2023-08-20T16:47:59;7.03;;;4.73;;
5819;SDS011;2936;47.348;9.640;2023-08-20T16:50:27;6.13;;;5.57;;
5819;SDS011;2936;47.348;9.640;2023-08-20T16:52:56;5.30;;;4.57;;
5819;SDS011;2936;47.348;9.640;2023-08-20T16:55:24;5.10;;;4.70;;
5819;SDS011;2936;47.348;9.640;2023-08-20T16:57:52;4.80;;;4.40;;
5819;SDS011;2936;47.348;9.640;2023-08-20T17:00:20;8.50;;;4.90;;
5819;SDS011;2936;47.348;9.640;2023-08-20T17:02:49;4.10;;;3.80;;
5819;SDS011;2936;47.348;9.640;2023-08-20T17:05:18;8.53;;;4.90;;
5819;SDS011;2936;47.348;9.640;2023-08-20T17:07:45;14.60;;;5.07;;
5819;SDS011;2936;47.348;9.640;2023-08-20T17:10:13;3.87;;;3.50;;
5819;SDS011;2936;47.348;9.640;2023-08-20T17:12:40;10.47;;;4.30;;
5819;SDS011;2936;47.348;9.640;2023-08-20T17:15:08;5.33;;;3.63;;
5819;SDS011;2936;47.348;9.640;2023-08-20T17:17:36;7.10;;;3.43;;
5819;SDS011;2936;47.348;9.640;2023-08-20T17:20:04;4.77;;;4.37;;
5819;SDS011;2936;47.348;9.640;2023-08-20T17:22:34;4.83;;;4.33;;
5819;SDS011;2936;47.348;9.640;2023-08-20T17:25:01;6.20;;;4.50;;
5819;SDS011;2936;47.348;9.640;2023-08-20T17:27:29;4.37;;;3.90;;
5819;SDS011;2936;47.348;9.640;2023-08-20T17:29:58;8.03;;;4.77;;
5819;SDS011;2936;47.348;9.640;2023-08-20T17:32:29;7.83;;;5.33;;
5819;SDS011;2936;47.348;9.640;2023-08-20T17:34:57;4.77;;;4.47;;
5819;SDS011;2936;47.348;9.640;2023-08-20T17:37:24;6.37;;;4.50;;
5819;SDS011;2936;47.348;9.640;2023-08-20T17:39:53;16.20;;;4.97;;
5819;SDS011;2936;47.348;9.640;2023-08-20T17:42:21;9.93;;;5.13;;
5819;SDS011;2936;47.348;9.640;2023-08-20T17:44:49;5.33;;;4.70;;
5819;SDS011;2936;47.348;9.640;2023-08-20T17:47:16;12.40;;;6.90;;
5819;SDS011;2936;47.348;9.640;2023-08-20T17:49:44;14.47;;;9.80;;
5819;SDS011;2936;47.348;9.640;2023-08-20T17:52:12;10.43;;;8.50;;
5819;SDS011;2936;47.348;9.640;2023-08-20T17:54:40;10.73;;;6.40;;
5819;SDS011;2936;47.348;9.640;2023-08-20T17:57:09;8.93;;;4.80;;
5819;SDS011;2936;47.348;9.640;2023-08-20T17:59:37;7.30;;;5.60;;
5819;SDS011;2936;47.348;9.640;2023-08-20T18:02:04;6.40;;;4.80;;
5819;SDS011;2936;47.348;9.640;2023-08-20T18:04:31;7.67;;;5.77;;
5819;SDS011;2936;47.348;9.640;2023-08-20T18:07:00;7.20;;;5.90;;
5819;SDS011;2936;47.348;9.640;2023-08-20T18:09:29;5.07;;;4.63;;
5819;SDS011;2936;47.348;9.640;2023-08-20T18:11:57;13.70;;;5.70;;
5819;SDS011;2936;47.348;9.640;2023-08-20T18:14:26;6.10;;;5.33;;
5819;SDS011;2936;47.348;9.640;2023-08-20T18:16:54;14.13;;;6.40;;
5819;SDS011;2936;47.348;9.640;2023-08-20T18:19:22;9.43;;;5.63;;
5819;SDS011;2936;47.348;9.640;2023-08-20T18:21:50;6.57;;;5.63;;
5819;SDS011;2936;47.348;9.640;2023-08-20T18:24:17;6.00;;;5.40;;
5819;SDS011;2936;47.348;9.640;2023-08-20T18:26:45;7.50;;;6.80;;
5819;SDS011;2936;47.348;9.640;2023-08-20T18:29:13;6.83;;;5.60;;
5819;SDS011;2936;47.348;9.640;2023-08-20T18:31:42;10.23;;;6.00;;
5819;SDS011;2936;47.348;9.640;2023-08-20T18:34:14;8.60;;;5.80;;
5819;SDS011;2936;47.348;9.640;2023-08-20T18:36:42;7.40;;;6.23;;
5819;SDS011;2936;47.348;9.640;2023-08-20T18:39:10;7.80;;;5.40;;
5819;SDS011;2936;47.348;9.640;2023-08-20T18:41:39;8.03;;;5.60;;
5819;SDS011;2936;47.348;9.640;2023-08-20T18:44:07;6.17;;;5.53;;
5819;SDS011;2936;47.348;9.640;2023-08-20T18:46:34;5.90;;;5.40;;
5819;SDS011;2936;47.348;9.640;2023-08-20T18:49:03;12.27;;;6.40;;
5819;SDS011;2936;47.348;9.640;2023-08-20T18:51:31;10.00;;;6.87;;
5819;SDS011;2936;47.348;9.640;2023-08-20T18:53:58;6.63;;;6.03;;
5819;SDS011;2936;47.348;9.640;2023-08-20T18:56:26;6.20;;;5.70;;
5819;SDS011;2936;47.348;9.640;2023-08-20T18:58:53;14.43;;;6.20;;
5819;SDS011;2936;47.348;9.640;2023-08-20T19:01:21;8.30;;;6.33;;
5819;SDS011;2936;47.348;9.640;2023-08-20T19:03:49;6.97;;;6.17;;
5819;SDS011;2936;47.348;9.640;2023-08-20T19:06:19;7.93;;;6.00;;
5819;SDS011;2936;47.348;9.640;2023-08-20T19:08:46;16.70;;;5.97;;
5819;SDS011;2936;47.348;9.640;2023-08-20T19:11:14;7.23;;;5.73;;
5819;SDS011;2936;47.348;9.640;2023-08-20T19:13:42;8.63;;;5.43;;
5819;SDS011;2936;47.348;9.640;2023-08-20T19:16:10;11.23;;;6.80;;
5819;SDS011;2936;47.348;9.640;2023-08-20T19:18:38;7.20;;;5.57;;
5819;SDS011;2936;47.348;9.640;2023-08-20T19:21:06;27.00;;;6.40;;
5819;SDS011;2936;47.348;9.640;2023-08-20T19:23:37;6.80;;;5.90;;
5819;SDS011;2936;47.348;9.640;2023-08-20T19:26:05;6.20;;;5.67;;
5819;SDS011;2936;47.348;9.640;2023-08-20T19:28:32;8.70;;;6.47;;
5819;SDS011;2936;47.348;9.640;2023-08-20T19:31:00;6.90;;;6.23;;
5819;SDS011;2936;47.348;9.640;2023-08-20T19:33:28;13.00;;;6.70;;
5819;SDS011;2936;47.348;9.640;2023-08-20T19:35:58;8.93;;;7.23;;
5819;SDS011;2936;47.348;9.640;2023-08-20T19:38:28;7.03;;;5.77;;
5819;SDS011;2936;47.348;9.640;2023-08-20T19:40:57;7.27;;;6.60;;
5819;SDS011;2936;47.348;9.640;2023-08-20T19:43:24;8.83;;;7.40;;
5819;SDS011;2936;47.348;9.640;2023-08-20T19:45:52;10.33;;;7.10;;
5819;SDS011;2936;47.348;9.640;2023-08-20T19:48:20;11.80;;;7.17;;
5819;SDS011;2936;47.348;9.640;2023-08-20T19:50:48;6.93;;;6.40;;
5819;SDS011;2936;47.348;9.640;2023-08-20T19:53:16;7.10;;;6.40;;
5819;SDS011;2936;47.348;9.640;2023-08-20T19:55:44;8.47;;;7.23;;
5819;SDS011;2936;47.348;9.640;2023-08-20T19:58:13;7.83;;;6.70;;
5819;SDS011;2936;47.348;9.640;2023-08-20T20:00:41;11.10;;;6.70;;
5819;SDS011;2936;47.348;9.640;2023-08-20T20:03:09;11.50;;;7.53;;
5819;SDS011;2936;47.348;9.640;2023-08-20T20:05:37;8.20;;;6.93;;
5819;SDS011;2936;47.348;9.640;2023-08-20T20:08:04;8.00;;;7.10;;
5819;SDS011;2936;47.348;9.640;2023-08-20T20:10:33;10.23;;;7.43;;
5819;SDS011;2936;47.348;9.640;2023-08-20T20:12:59;9.60;;;8.60;;
5819;SDS011;2936;47.348;9.640;2023-08-20T20:15:29;10.37;;;8.00;;
5819;SDS011;2936;47.348;9.640;2023-08-20T20:17:57;9.97;;;8.07;;
5819;SDS011;2936;47.348;9.640;2023-08-20T20:20:25;10.40;;;8.13;;
5819;SDS011;2936;47.348;9.640;2023-08-20T20:22:52;17.57;;;8.97;;
5819;SDS011;2936;47.348;9.640;2023-08-20T20:25:20;8.47;;;7.57;;
5819;SDS011;2936;47.348;9.640;2023-08-20T20:27:48;8.83;;;7.63;;
5819;SDS011;2936;47.348;9.640;2023-08-20T20:30:16;7.60;;;6.80;;
5819;SDS011;2936;47.348;9.640;2023-08-20T20:32:44;8.90;;;7.07;;
5819;SDS011;2936;47.348;9.640;2023-08-20T20:35:12;6.90;;;6.37;;
5819;SDS011;2936;47.348;9.640;2023-08-20T20:37:39;7.90;;;6.70;;
5819;SDS011;2936;47.348;9.640;2023-08-20T20:40:07;8.67;;;7.07;;
5819;SDS011;2936;47.348;9.640;2023-08-20T20:42:35;7.57;;;6.87;;
5819;SDS011;2936;47.348;9.640;2023-08-20T20:45:03;9.97;;;6.90;;
5819;SDS011;2936;47.348;9.640;2023-08-20T20:47:32;6.83;;;6.07;;
5819;SDS011;2936;47.348;9.640;2023-08-20T20:50:06;8.47;;;7.07;;
5819;SDS011;2936;47.348;9.640;2023-08-20T20:52:33;7.63;;;6.93;;
5819;SDS011;2936;47.348;9.640;2023-08-20T20:55:01;9.80;;;7.53;;
5819;SDS011;2936;47.348;9.640;2023-08-20T20:57:29;7.57;;;6.87;;
5819;SDS011;2936;47.348;9.640;2023-08-20T20:59:57;7.17;;;6.53;;
5819;SDS011;2936;47.348;9.640;2023-08-20T21:02:24;8.93;;;6.90;;
5819;SDS011;2936;47.348;9.640;2023-08-20T21:04:52;6.80;;;6.23;;
5819;SDS011;2936;47.348;9.640;2023-08-20T21:07:22;8.87;;;7.43;;
5819;SDS011;2936;47.348;9.640;2023-08-20T21:09:50;7.43;;;6.43;;
5819;SDS011;2936;47.348;9.640;2023-08-20T21:12:20;16.97;;;7.27;;
5819;SDS011;2936;47.348;9.640;2023-08-20T21:15:01;10.00;;;7.70;;
5819;SDS011;2936;47.348;9.640;2023-08-20T21:17:30;18.97;;;7.70;;
5819;SDS011;2936;47.348;9.640;2023-08-20T21:19:57;13.50;;;7.50;;
5819;SDS011;2936;47.348;9.640;2023-08-20T21:22:27;13.30;;;7.60;;
5819;SDS011;2936;47.348;9.640;2023-08-20T21:24:55;8.43;;;7.53;;
5819;SDS011;2936;47.348;9.640;2023-08-20T21:27:23;11.00;;;7.30;;
5819;SDS011;2936;47.348;9.640;2023-08-20T21:29:50;8.20;;;7.37;;
5819;SDS011;2936;47.348;9.640;2023-08-20T21:32:18;8.83;;;7.93;;
5819;SDS011;2936;47.348;9.640;2023-08-20T21:34:46;9.60;;;8.03;;
5819;SDS011;2936;47.348;9.640;2023-08-20T21:37:15;9.03;;;8.17;;
5819;SDS011;2936;47.348;9.640;2023-08-20T21:39:45;10.37;;;8.53;;
5819;SDS011;2936;47.348;9.640;2023-08-20T21:42:13;16.43;;;9.13;;
5819;SDS011;2936;47.348;9.640;2023-08-20T21:44:40;10.90;;;9.80;;
5819;SDS011;2936;47.348;9.640;2023-08-20T21:49:58;7.90;;;7.00;;
5819;SDS011;2936;47.348;9.640;2023-08-20T21:52:27;7.47;;;6.17;;
5819;SDS011;2936;47.348;9.640;2023-08-20T21:54:56;5.67;;;5.27;;
5819;SDS011;2936;47.348;9.640;2023-08-20T21:57:24;11.30;;;7.27;;
5819;SDS011;2936;47.348;9.640;2023-08-20T21:59:52;8.80;;;6.80;;
5819;SDS011;2936;47.348;9.640;2023-08-20T22:02:21;7.83;;;7.13;;
5819;SDS011;2936;47.348;9.640;2023-08-20T22:04:49;11.03;;;7.23;;
5819;SDS011;2936;47.348;9.640;2023-08-20T22:07:17;7.23;;;6.40;;
5819;SDS011;2936;47.348;9.640;2023-08-20T22:09:44;8.23;;;6.90;;
5819;SDS011;2936;47.348;9.640;2023-08-20T22:12:13;6.83;;;6.23;;
5819;SDS011;2936;47.348;9.640;2023-08-20T22:14:41;9.53;;;7.00;;
5819;SDS011;2936;47.348;9.640;2023-08-20T22:17:10;10.70;;;6.73;;
5819;SDS011;2936;47.348;9.640;2023-08-20T22:19:38;8.83;;;7.03;;
5819;SDS011;2936;47.348;9.640;2023-08-20T22:22:06;7.73;;;7.03;;
5819;SDS011;2936;47.348;9.640;2023-08-20T22:24:33;8.23;;;7.40;;
5819;SDS011;2936;47.348;9.640;2023-08-20T22:27:01;13.70;;;7.27;;
5819;SDS011;2936;47.348;9.640;2023-08-20T22:29:31;7.73;;;6.97;;
5819;SDS011;2936;47.348;9.640;2023-08-20T22:31:59;8.77;;;6.07;;
5819;SDS011;2936;47.348;9.640;2023-08-20T22:34:26;8.60;;;7.73;;
5819;SDS011;2936;47.348;9.640;2023-08-20T22:36:54;9.13;;;8.23;;
5819;SDS011;2936;47.348;9.640;2023-08-20T22:39:22;11.43;;;7.90;;
5819;SDS011;2936;47.348;9.640;2023-08-20T22:41:49;8.10;;;7.10;;
5819;SDS011;2936;47.348;9.640;2023-08-20T22:44:17;10.13;;;8.33;;
5819;SDS011;2936;47.348;9.640;2023-08-20T22:46:46;7.80;;;7.00;;
5819;SDS011;2936;47.348;9.640;2023-08-20T22:49:13;8.47;;;7.63;;
5819;SDS011;2936;47.348;9.640;2023-08-20T22:51:41;11.37;;;7.53;;
5819;SDS011;2936;47.348;9.640;2023-08-20T22:54:08;8.50;;;7.63;;
5819;SDS011;2936;47.348;9.640;2023-08-20T22:56:36;10.10;;;7.63;;
5819;SDS011;2936;47.348;9.640;2023-08-20T22:59:04;8.83;;;7.37;;
5819;SDS011;2936;47.348;9.640;2023-08-20T23:01:36;8.17;;;7.47;;
5819;SDS011;2936;47.348;9.640;2023-08-20T23:04:09;16.17;;;7.73;;
5819;SDS011;2936;47.348;9.640;2023-08-20T23:06:37;8.30;;;6.10;;
5819;SDS011;2936;47.348;9.640;2023-08-20T23:09:05;10.50;;;7.33;;
5819;SDS011;2936;47.348;9.640;2023-08-20T23:11:34;11.63;;;6.80;;
5819;SDS011;2936;47.348;9.640;2023-08-20T23:14:02;7.13;;;6.53;;
5819;SDS011;2936;47.348;9.640;2023-08-20T23:16:29;7.70;;;6.27;;
5819;SDS011;2936;47.348;9.640;2023-08-20T23:18:57;7.80;;;6.00;;
5819;SDS011;2936;47.348;9.640;2023-08-20T23:21:26;7.40;;;6.60;;
5819;SDS011;2936;47.348;9.640;2023-08-20T23:23:54;7.60;;;6.33;;
5819;SDS011;2936;47.348;9.640;2023-08-20T23:26:22;7.10;;;6.40;;
5819;SDS011;2936;47.348;9.640;2023-08-20T23:28:49;6.80;;;6.20;;
5819;SDS011;2936;47.348;9.640;2023-08-20T23:31:17;11.50;;;6.90;;
5819;SDS011;2936;47.348;9.640;2023-08-20T23:33:47;6.30;;;5.80;;
5819;SDS011;2936;47.348;9.640;2023-08-20T23:36:15;6.67;;;6.00;;
5819;SDS011;2936;47.348;9.640;2023-08-20T23:38:44;8.90;;;6.17;;
5819;SDS011;2936;47.348;9.640;2023-08-20T23:41:12;9.90;;;6.17;;
5819;SDS011;2936;47.348;9.640;2023-08-20T23:43:40;6.70;;;6.10;;
5819;SDS011;2936;47.348;9.640;2023-08-20T23:46:08;7.50;;;6.60;;
5819;SDS011;2936;47.348;9.640;2023-08-20T23:48:36;6.77;;;6.17;;
5819;SDS011;2936;47.348;9.640;2023-08-20T23:51:04;7.20;;;6.43;;
5819;SDS011;2936;47.348;9.640;2023-08-20T23:53:32;7.30;;;6.47;;
5819;SDS011;2936;47.348;9.640;2023-08-20T23:56:01;7.40;;;5.37;;
5819;SDS011;2936;47.348;9.640;2023-08-20T23:58:29;7.70;;;6.70;;
